Terminal Aerodrome Forecast
Issued by NWS Sterling, VA

Current Version | Previous Version | Text Only | Print | Product List | Glossary Off
Versions: 1 2 3 4 5 6 7 8 9 10 11 12 13 14 15 16 17 18 19 20 21 22 23 24 25 26

997
FTUS41 KLWX 181504 AAA
TAFDCA
TAF AMD
KDCA 181504Z 1815/1912 04008KT P6SM BKN020
     FM181800 04008KT P6SM BKN035
     FM190100 03007KT P6SM SCT080
     FM190600 01006KT P6SM SCT010
     FM191000 36009KT P6SM BKN020=

USA.gov is the U.S. government's official web portal to all federal, state and local government web resources and services.